sensor_id;sensor_type;location;lat;lon;timestamp;P1;durP1;ratioP1;P2;durP2;ratioP2
26718;SDS011;14326;50.794;6.060;2023-09-19T00:02:25;12.55;;;2.33;;
26718;SDS011;14326;50.794;6.060;2023-09-19T00:04:52;13.60;;;2.30;;
26718;SDS011;14326;50.794;6.060;2023-09-19T00:07:18;15.10;;;3.00;;
26718;SDS011;14326;50.794;6.060;2023-09-19T00:09:46;12.50;;;3.70;;
26718;SDS011;14326;50.794;6.060;2023-09-19T00:12:13;12.05;;;1.90;;
26718;SDS011;14326;50.794;6.060;2023-09-19T00:14:40;18.35;;;2.92;;
26718;SDS011;14326;50.794;6.060;2023-09-19T00:17:08;14.70;;;2.90;;
26718;SDS011;14326;50.794;6.060;2023-09-19T00:19:34;16.55;;;2.42;;
26718;SDS011;14326;50.794;6.060;2023-09-19T00:22:02;13.88;;;2.72;;
26718;SDS011;14326;50.794;6.060;2023-09-19T00:24:29;12.27;;;2.33;;
26718;SDS011;14326;50.794;6.060;2023-09-19T00:26:56;13.40;;;2.58;;
26718;SDS011;14326;50.794;6.060;2023-09-19T00:29:24;13.60;;;2.00;;
26718;SDS011;14326;50.794;6.060;2023-09-19T00:31:54;11.65;;;2.00;;
26718;SDS011;14326;50.794;6.060;2023-09-19T00:34:22;15.70;;;2.95;;
26718;SDS011;14326;50.794;6.060;2023-09-19T00:36:50;13.18;;;3.05;;
26718;SDS011;14326;50.794;6.060;2023-09-19T00:39:18;16.90;;;2.17;;
26718;SDS011;14326;50.794;6.060;2023-09-19T00:41:45;15.98;;;2.60;;
26718;SDS011;14326;50.794;6.060;2023-09-19T00:44:12;19.95;;;2.90;;
26718;SDS011;14326;50.794;6.060;2023-09-19T00:46:40;16.08;;;2.53;;
26718;SDS011;14326;50.794;6.060;2023-09-19T00:49:07;13.07;;;2.47;;
26718;SDS011;14326;50.794;6.060;2023-09-19T00:51:36;18.63;;;2.90;;
26718;SDS011;14326;50.794;6.060;2023-09-19T00:54:03;18.20;;;2.35;;
26718;SDS011;14326;50.794;6.060;2023-09-19T00:56:30;18.15;;;2.88;;
26718;SDS011;14326;50.794;6.060;2023-09-19T00:58:56;16.85;;;2.95;;
26718;SDS011;14326;50.794;6.060;2023-09-19T01:01:23;19.15;;;2.55;;
26718;SDS011;14326;50.794;6.060;2023-09-19T01:03:50;15.57;;;2.65;;
26718;SDS011;14326;50.794;6.060;2023-09-19T01:06:17;15.55;;;2.45;;
26718;SDS011;14326;50.794;6.060;2023-09-19T01:08:45;16.17;;;3.33;;
26718;SDS011;14326;50.794;6.060;2023-09-19T01:11:13;15.00;;;2.45;;
26718;SDS011;14326;50.794;6.060;2023-09-19T01:13:48;12.93;;;2.13;;
26718;SDS011;14326;50.794;6.060;2023-09-19T01:19:22;14.13;;;2.33;;
26718;SDS011;14326;50.794;6.060;2023-09-19T01:22:07;20.73;;;3.05;;
26718;SDS011;14326;50.794;6.060;2023-09-19T01:27:57;18.00;;;3.03;;
26718;SDS011;14326;50.794;6.060;2023-09-19T01:30:42;13.13;;;2.83;;
26718;SDS011;14326;50.794;6.060;2023-09-19T01:33:10;11.75;;;2.03;;
26718;SDS011;14326;50.794;6.060;2023-09-19T01:35:37;19.25;;;2.70;;
26718;SDS011;14326;50.794;6.060;2023-09-19T01:38:04;17.58;;;2.65;;
26718;SDS011;14326;50.794;6.060;2023-09-19T01:40:32;18.30;;;2.85;;
26718;SDS011;14326;50.794;6.060;2023-09-19T01:43:20;15.70;;;2.58;;
26718;SDS011;14326;50.794;6.060;2023-09-19T01:45:55;20.67;;;3.22;;
26718;SDS011;14326;50.794;6.060;2023-09-19T01:48:32;21.05;;;2.72;;
26718;SDS011;14326;50.794;6.060;2023-09-19T01:51:05;17.17;;;2.45;;
26718;SDS011;14326;50.794;6.060;2023-09-19T01:53:34;19.08;;;3.47;;
26718;SDS011;14326;50.794;6.060;2023-09-19T01:56:07;16.23;;;2.60;;
26718;SDS011;14326;50.794;6.060;2023-09-19T01:58:39;17.17;;;2.33;;
26718;SDS011;14326;50.794;6.060;2023-09-19T02:01:15;13.70;;;2.40;;
26718;SDS011;14326;50.794;6.060;2023-09-19T02:03:45;16.50;;;2.97;;
26718;SDS011;14326;50.794;6.060;2023-09-19T02:06:13;14.23;;;2.80;;
26718;SDS011;14326;50.794;6.060;2023-09-19T02:08:40;14.40;;;2.75;;
26718;SDS011;14326;50.794;6.060;2023-09-19T02:11:07;15.50;;;2.88;;
26718;SDS011;14326;50.794;6.060;2023-09-19T02:13:34;15.63;;;2.45;;
26718;SDS011;14326;50.794;6.060;2023-09-19T02:16:00;16.05;;;3.17;;
26718;SDS011;14326;50.794;6.060;2023-09-19T02:18:30;19.77;;;2.60;;
26718;SDS011;14326;50.794;6.060;2023-09-19T02:21:00;16.55;;;3.33;;
26718;SDS011;14326;50.794;6.060;2023-09-19T02:23:26;18.88;;;3.00;;
26718;SDS011;14326;50.794;6.060;2023-09-19T02:25:55;16.50;;;2.83;;
26718;SDS011;14326;50.794;6.060;2023-09-19T02:28:23;21.00;;;3.13;;
26718;SDS011;14326;50.794;6.060;2023-09-19T02:30:55;18.42;;;2.58;;
26718;SDS011;14326;50.794;6.060;2023-09-19T02:33:21;20.88;;;2.33;;
26718;SDS011;14326;50.794;6.060;2023-09-19T02:35:49;16.75;;;2.55;;
26718;SDS011;14326;50.794;6.060;2023-09-19T02:38:22;15.48;;;2.30;;
26718;SDS011;14326;50.794;6.060;2023-09-19T02:40:50;14.27;;;2.30;;
26718;SDS011;14326;50.794;6.060;2023-09-19T02:43:16;22.15;;;3.08;;
26718;SDS011;14326;50.794;6.060;2023-09-19T02:45:44;20.08;;;3.33;;
26718;SDS011;14326;50.794;6.060;2023-09-19T02:48:11;18.30;;;2.88;;
26718;SDS011;14326;50.794;6.060;2023-09-19T02:50:38;15.35;;;2.60;;
26718;SDS011;14326;50.794;6.060;2023-09-19T02:53:06;16.25;;;3.15;;
26718;SDS011;14326;50.794;6.060;2023-09-19T02:55:35;15.38;;;2.28;;
26718;SDS011;14326;50.794;6.060;2023-09-19T02:58:03;17.50;;;2.70;;
26718;SDS011;14326;50.794;6.060;2023-09-19T03:00:33;17.33;;;2.53;;
26718;SDS011;14326;50.794;6.060;2023-09-19T03:03:00;15.82;;;2.97;;
26718;SDS011;14326;50.794;6.060;2023-09-19T03:05:28;24.40;;;2.92;;
26718;SDS011;14326;50.794;6.060;2023-09-19T03:07:55;14.90;;;2.55;;
26718;SDS011;14326;50.794;6.060;2023-09-19T03:10:27;11.77;;;1.85;;
26718;SDS011;14326;50.794;6.060;2023-09-19T03:12:55;15.68;;;2.40;;
26718;SDS011;14326;50.794;6.060;2023-09-19T03:15:25;17.52;;;2.55;;
26718;SDS011;14326;50.794;6.060;2023-09-19T03:17:51;18.80;;;3.00;;
26718;SDS011;14326;50.794;6.060;2023-09-19T03:20:18;20.13;;;3.08;;
26718;SDS011;14326;50.794;6.060;2023-09-19T03:22:46;12.25;;;2.42;;
26718;SDS011;14326;50.794;6.060;2023-09-19T03:25:13;18.70;;;3.10;;
26718;SDS011;14326;50.794;6.060;2023-09-19T03:27:41;21.70;;;3.00;;
26718;SDS011;14326;50.794;6.060;2023-09-19T03:30:08;15.88;;;2.20;;
26718;SDS011;14326;50.794;6.060;2023-09-19T03:32:43;16.70;;;3.03;;
26718;SDS011;14326;50.794;6.060;2023-09-19T03:35:10;19.23;;;2.97;;
26718;SDS011;14326;50.794;6.060;2023-09-19T03:37:39;18.20;;;3.08;;
26718;SDS011;14326;50.794;6.060;2023-09-19T03:40:06;13.05;;;2.45;;
26718;SDS011;14326;50.794;6.060;2023-09-19T03:42:34;16.63;;;3.17;;
26718;SDS011;14326;50.794;6.060;2023-09-19T03:45:02;17.50;;;2.92;;
26718;SDS011;14326;50.794;6.060;2023-09-19T03:47:30;15.30;;;2.90;;
26718;SDS011;14326;50.794;6.060;2023-09-19T03:49:57;18.42;;;3.28;;
26718;SDS011;14326;50.794;6.060;2023-09-19T03:52:24;21.00;;;4.10;;
26718;SDS011;14326;50.794;6.060;2023-09-19T03:54:51;25.67;;;3.85;;
26718;SDS011;14326;50.794;6.060;2023-09-19T03:57:18;24.35;;;3.95;;
26718;SDS011;14326;50.794;6.060;2023-09-19T03:59:45;15.80;;;2.83;;
26718;SDS011;14326;50.794;6.060;2023-09-19T04:02:13;22.63;;;3.67;;
26718;SDS011;14326;50.794;6.060;2023-09-19T04:04:47;20.60;;;2.70;;
26718;SDS011;14326;50.794;6.060;2023-09-19T04:07:13;16.13;;;2.83;;
26718;SDS011;14326;50.794;6.060;2023-09-19T04:09:40;22.55;;;3.42;;
26718;SDS011;14326;50.794;6.060;2023-09-19T04:12:07;18.52;;;3.88;;
26718;SDS011;14326;50.794;6.060;2023-09-19T04:14:34;22.95;;;3.75;;
26718;SDS011;14326;50.794;6.060;2023-09-19T04:17:01;22.60;;;3.55;;
26718;SDS011;14326;50.794;6.060;2023-09-19T04:19:29;15.57;;;2.90;;
26718;SDS011;14326;50.794;6.060;2023-09-19T04:21:56;20.98;;;3.30;;
26718;SDS011;14326;50.794;6.060;2023-09-19T04:24:23;14.70;;;3.05;;
26718;SDS011;14326;50.794;6.060;2023-09-19T04:26:49;23.38;;;3.78;;
26718;SDS011;14326;50.794;6.060;2023-09-19T04:29:16;16.60;;;2.72;;
26718;SDS011;14326;50.794;6.060;2023-09-19T04:31:44;18.40;;;2.90;;
26718;SDS011;14326;50.794;6.060;2023-09-19T04:34:11;17.27;;;3.45;;
26718;SDS011;14326;50.794;6.060;2023-09-19T04:36:43;13.60;;;2.55;;
26718;SDS011;14326;50.794;6.060;2023-09-19T04:39:10;23.55;;;3.08;;
26718;SDS011;14326;50.794;6.060;2023-09-19T04:41:38;20.17;;;3.05;;
26718;SDS011;14326;50.794;6.060;2023-09-19T04:44:06;21.15;;;3.33;;
26718;SDS011;14326;50.794;6.060;2023-09-19T04:46:33;19.60;;;3.63;;
26718;SDS011;14326;50.794;6.060;2023-09-19T04:49:00;17.38;;;3.17;;
26718;SDS011;14326;50.794;6.060;2023-09-19T04:51:27;18.30;;;3.03;;
26718;SDS011;14326;50.794;6.060;2023-09-19T04:53:59;22.55;;;3.05;;
26718;SDS011;14326;50.794;6.060;2023-09-19T04:56:26;17.88;;;3.10;;
26718;SDS011;14326;50.794;6.060;2023-09-19T04:58:53;22.75;;;3.42;;
26718;SDS011;14326;50.794;6.060;2023-09-19T05:01:20;15.90;;;3.15;;
26718;SDS011;14326;50.794;6.060;2023-09-19T05:03:48;20.55;;;3.38;;
26718;SDS011;14326;50.794;6.060;2023-09-19T05:06:17;21.33;;;3.37;;
26718;SDS011;14326;50.794;6.060;2023-09-19T05:08:44;19.90;;;3.95;;
26718;SDS011;14326;50.794;6.060;2023-09-19T05:11:12;20.38;;;3.25;;
26718;SDS011;14326;50.794;6.060;2023-09-19T05:13:38;21.45;;;3.58;;
26718;SDS011;14326;50.794;6.060;2023-09-19T05:16:05;15.63;;;3.08;;
26718;SDS011;14326;50.794;6.060;2023-09-19T05:18:35;15.85;;;2.72;;
26718;SDS011;14326;50.794;6.060;2023-09-19T05:21:02;25.00;;;4.30;;
26718;SDS011;14326;50.794;6.060;2023-09-19T05:23:28;15.93;;;3.33;;
26718;SDS011;14326;50.794;6.060;2023-09-19T05:25:55;18.60;;;3.70;;
26718;SDS011;14326;50.794;6.060;2023-09-19T05:28:25;24.58;;;4.10;;
26718;SDS011;14326;50.794;6.060;2023-09-19T05:30:52;14.13;;;2.72;;
26718;SDS011;14326;50.794;6.060;2023-09-19T05:33:19;14.43;;;2.42;;
26718;SDS011;14326;50.794;6.060;2023-09-19T05:35:47;19.45;;;3.38;;
26718;SDS011;14326;50.794;6.060;2023-09-19T05:38:14;15.20;;;2.88;;
26718;SDS011;14326;50.794;6.060;2023-09-19T05:40:44;17.83;;;3.10;;
26718;SDS011;14326;50.794;6.060;2023-09-19T05:43:11;19.25;;;3.20;;
26718;SDS011;14326;50.794;6.060;2023-09-19T05:45:40;21.50;;;3.40;;
26718;SDS011;14326;50.794;6.060;2023-09-19T05:48:07;22.02;;;3.53;;
26718;SDS011;14326;50.794;6.060;2023-09-19T05:50:36;19.58;;;2.72;;
26718;SDS011;14326;50.794;6.060;2023-09-19T05:53:03;19.83;;;2.90;;
26718;SDS011;14326;50.794;6.060;2023-09-19T05:55:30;19.30;;;3.55;;
26718;SDS011;14326;50.794;6.060;2023-09-19T05:57:57;16.23;;;2.63;;
26718;SDS011;14326;50.794;6.060;2023-09-19T06:00:24;21.42;;;3.70;;
26718;SDS011;14326;50.794;6.060;2023-09-19T06:02:54;20.23;;;3.40;;
26718;SDS011;14326;50.794;6.060;2023-09-19T06:07:49;19.48;;;3.15;;
26718;SDS011;14326;50.794;6.060;2023-09-19T06:10:17;18.77;;;3.13;;
26718;SDS011;14326;50.794;6.060;2023-09-19T06:12:46;19.10;;;2.97;;
26718;SDS011;14326;50.794;6.060;2023-09-19T06:15:13;30.85;;;4.57;;
26718;SDS011;14326;50.794;6.060;2023-09-19T06:17:41;19.75;;;2.63;;
26718;SDS011;14326;50.794;6.060;2023-09-19T06:20:10;26.30;;;3.50;;
26718;SDS011;14326;50.794;6.060;2023-09-19T06:22:40;15.40;;;2.72;;
26718;SDS011;14326;50.794;6.060;2023-09-19T06:25:08;21.40;;;3.13;;
26718;SDS011;14326;50.794;6.060;2023-09-19T06:27:36;19.20;;;3.15;;
26718;SDS011;14326;50.794;6.060;2023-09-19T06:30:03;24.13;;;3.42;;
26718;SDS011;14326;50.794;6.060;2023-09-19T06:32:31;19.67;;;3.15;;
26718;SDS011;14326;50.794;6.060;2023-09-19T06:34:58;12.40;;;2.67;;
26718;SDS011;14326;50.794;6.060;2023-09-19T06:37:28;17.95;;;3.50;;
26718;SDS011;14326;50.794;6.060;2023-09-19T06:39:54;15.07;;;2.17;;
26718;SDS011;14326;50.794;6.060;2023-09-19T06:42:22;14.30;;;3.15;;
26718;SDS011;14326;50.794;6.060;2023-09-19T06:44:49;15.30;;;2.88;;
26718;SDS011;14326;50.794;6.060;2023-09-19T06:47:15;18.55;;;2.75;;
26718;SDS011;14326;50.794;6.060;2023-09-19T06:49:42;18.00;;;2.88;;
26718;SDS011;14326;50.794;6.060;2023-09-19T06:52:09;19.83;;;3.45;;
26718;SDS011;14326;50.794;6.060;2023-09-19T06:54:37;16.98;;;2.53;;
26718;SDS011;14326;50.794;6.060;2023-09-19T06:57:05;12.80;;;2.75;;
26718;SDS011;14326;50.794;6.060;2023-09-19T06:59:34;11.88;;;2.80;;
26718;SDS011;14326;50.794;6.060;2023-09-19T07:02:02;13.07;;;2.72;;
26718;SDS011;14326;50.794;6.060;2023-09-19T07:04:31;19.10;;;3.22;;
26718;SDS011;14326;50.794;6.060;2023-09-19T07:06:58;17.08;;;2.67;;
26718;SDS011;14326;50.794;6.060;2023-09-19T07:09:25;19.48;;;2.92;;
26718;SDS011;14326;50.794;6.060;2023-09-19T07:11:54;17.15;;;3.08;;
26718;SDS011;14326;50.794;6.060;2023-09-19T07:14:21;21.48;;;3.45;;
26718;SDS011;14326;50.794;6.060;2023-09-19T07:16:47;19.45;;;3.15;;
26718;SDS011;14326;50.794;6.060;2023-09-19T07:19:14;18.30;;;2.78;;
26718;SDS011;14326;50.794;6.060;2023-09-19T07:21:41;17.95;;;3.08;;
26718;SDS011;14326;50.794;6.060;2023-09-19T07:24:08;21.52;;;2.75;;
26718;SDS011;14326;50.794;6.060;2023-09-19T07:26:34;20.42;;;2.97;;
26718;SDS011;14326;50.794;6.060;2023-09-19T07:29:02;16.45;;;2.88;;
26718;SDS011;14326;50.794;6.060;2023-09-19T07:31:29;17.27;;;2.90;;
26718;SDS011;14326;50.794;6.060;2023-09-19T07:33:56;16.55;;;3.50;;
26718;SDS011;14326;50.794;6.060;2023-09-19T07:36:23;15.00;;;3.05;;
26718;SDS011;14326;50.794;6.060;2023-09-19T07:38:50;17.00;;;3.35;;
26718;SDS011;14326;50.794;6.060;2023-09-19T07:41:16;17.27;;;2.90;;
26718;SDS011;14326;50.794;6.060;2023-09-19T07:43:43;17.33;;;2.90;;
26718;SDS011;14326;50.794;6.060;2023-09-19T07:46:11;19.60;;;3.28;;
26718;SDS011;14326;50.794;6.060;2023-09-19T07:48:38;17.38;;;2.85;;
26718;SDS011;14326;50.794;6.060;2023-09-19T07:51:06;20.17;;;2.90;;
26718;SDS011;14326;50.794;6.060;2023-09-19T07:53:33;15.05;;;2.70;;
26718;SDS011;14326;50.794;6.060;2023-09-19T07:56:04;20.83;;;2.75;;
26718;SDS011;14326;50.794;6.060;2023-09-19T07:58:32;16.80;;;3.05;;
26718;SDS011;14326;50.794;6.060;2023-09-19T08:01:03;13.02;;;2.20;;
26718;SDS011;14326;50.794;6.060;2023-09-19T08:03:32;13.60;;;2.50;;
26718;SDS011;14326;50.794;6.060;2023-09-19T08:05:59;20.95;;;2.83;;
26718;SDS011;14326;50.794;6.060;2023-09-19T08:08:26;14.98;;;2.50;;
26718;SDS011;14326;50.794;6.060;2023-09-19T08:10:53;15.38;;;2.92;;
26718;SDS011;14326;50.794;6.060;2023-09-19T08:13:21;16.25;;;3.05;;
26718;SDS011;14326;50.794;6.060;2023-09-19T08:15:48;16.17;;;2.75;;
26718;SDS011;14326;50.794;6.060;2023-09-19T08:18:16;11.50;;;2.38;;
26718;SDS011;14326;50.794;6.060;2023-09-19T08:20:48;17.10;;;2.97;;
26718;SDS011;14326;50.794;6.060;2023-09-19T08:23:16;17.05;;;2.72;;
26718;SDS011;14326;50.794;6.060;2023-09-19T08:25:47;16.95;;;2.80;;
26718;SDS011;14326;50.794;6.060;2023-09-19T08:28:14;15.00;;;2.67;;
26718;SDS011;14326;50.794;6.060;2023-09-19T08:30:47;18.60;;;2.80;;
26718;SDS011;14326;50.794;6.060;2023-09-19T08:33:14;17.45;;;2.45;;
26718;SDS011;14326;50.794;6.060;2023-09-19T08:35:41;15.82;;;2.25;;
26718;SDS011;14326;50.794;6.060;2023-09-19T08:38:09;18.52;;;2.85;;
26718;SDS011;14326;50.794;6.060;2023-09-19T08:40:37;16.05;;;2.75;;
26718;SDS011;14326;50.794;6.060;2023-09-19T08:43:05;14.55;;;2.65;;
26718;SDS011;14326;50.794;6.060;2023-09-19T08:45:32;16.63;;;2.50;;
26718;SDS011;14326;50.794;6.060;2023-09-19T08:48:00;17.30;;;2.72;;
26718;SDS011;14326;50.794;6.060;2023-09-19T08:50:42;16.17;;;3.55;;
26718;SDS011;14326;50.794;6.060;2023-09-19T08:53:15;19.08;;;2.53;;
26718;SDS011;14326;50.794;6.060;2023-09-19T08:55:52;19.03;;;3.20;;
26718;SDS011;14326;50.794;6.060;2023-09-19T08:58:21;13.75;;;2.13;;
26718;SDS011;14326;50.794;6.060;2023-09-19T09:00:54;15.60;;;2.20;;
26718;SDS011;14326;50.794;6.060;2023-09-19T09:03:22;13.43;;;2.40;;
26718;SDS011;14326;50.794;6.060;2023-09-19T09:05:49;20.88;;;2.70;;
26718;SDS011;14326;50.794;6.060;2023-09-19T09:08:19;14.90;;;2.83;;
26718;SDS011;14326;50.794;6.060;2023-09-19T09:10:46;15.77;;;3.03;;
26718;SDS011;14326;50.794;6.060;2023-09-19T09:13:13;19.63;;;3.30;;
26718;SDS011;14326;50.794;6.060;2023-09-19T09:15:40;13.38;;;2.40;;
26718;SDS011;14326;50.794;6.060;2023-09-19T09:18:09;12.20;;;2.42;;
26718;SDS011;14326;50.794;6.060;2023-09-19T09:20:36;14.90;;;2.65;;
26718;SDS011;14326;50.794;6.060;2023-09-19T09:23:03;16.60;;;2.83;;
26718;SDS011;14326;50.794;6.060;2023-09-19T09:28:22;13.30;;;2.45;;
26718;SDS011;14326;50.794;6.060;2023-09-19T09:30:50;19.88;;;3.22;;
26718;SDS011;14326;50.794;6.060;2023-09-19T09:33:17;10.93;;;2.00;;
26718;SDS011;14326;50.794;6.060;2023-09-19T09:35:47;14.98;;;2.75;;
26718;SDS011;14326;50.794;6.060;2023-09-19T09:38:17;16.98;;;3.33;;
26718;SDS011;14326;50.794;6.060;2023-09-19T09:40:47;14.85;;;2.60;;
26718;SDS011;14326;50.794;6.060;2023-09-19T09:43:27;18.52;;;2.95;;
26718;SDS011;14326;50.794;6.060;2023-09-19T09:46:08;15.13;;;2.72;;
26718;SDS011;14326;50.794;6.060;2023-09-19T09:49:05;14.52;;;2.63;;
26718;SDS011;14326;50.794;6.060;2023-09-19T09:51:41;16.67;;;2.50;;
26718;SDS011;14326;50.794;6.060;2023-09-19T09:54:12;12.45;;;2.40;;
26718;SDS011;14326;50.794;6.060;2023-09-19T09:56:56;18.08;;;2.95;;
26718;SDS011;14326;50.794;6.060;2023-09-19T10:02:13;14.05;;;2.67;;
26718;SDS011;14326;50.794;6.060;2023-09-19T10:04:41;17.40;;;2.95;;
26718;SDS011;14326;50.794;6.060;2023-09-19T10:07:23;16.50;;;2.63;;
26718;SDS011;14326;50.794;6.060;2023-09-19T10:09:52;18.40;;;3.25;;
26718;SDS011;14326;50.794;6.060;2023-09-19T10:12:24;15.73;;;2.63;;
26718;SDS011;14326;50.794;6.060;2023-09-19T10:14:55;16.42;;;3.38;;
26718;SDS011;14326;50.794;6.060;2023-09-19T10:19:54;14.68;;;2.63;;
26718;SDS011;14326;50.794;6.060;2023-09-19T10:22:23;18.60;;;2.60;;
26718;SDS011;14326;50.794;6.060;2023-09-19T10:24:51;20.17;;;3.08;;
26718;SDS011;14326;50.794;6.060;2023-09-19T10:27:20;15.05;;;2.85;;
26718;SDS011;14326;50.794;6.060;2023-09-19T10:29:48;16.67;;;2.83;;
26718;SDS011;14326;50.794;6.060;2023-09-19T10:32:17;13.55;;;2.33;;
26718;SDS011;14326;50.794;6.060;2023-09-19T10:34:45;10.25;;;2.08;;
26718;SDS011;14326;50.794;6.060;2023-09-19T10:37:13;18.10;;;2.58;;
26718;SDS011;14326;50.794;6.060;2023-09-19T10:39:44;16.95;;;2.78;;
26718;SDS011;14326;50.794;6.060;2023-09-19T10:42:13;14.80;;;2.47;;
26718;SDS011;14326;50.794;6.060;2023-09-19T10:44:42;8.52;;;1.73;;
26718;SDS011;14326;50.794;6.060;2023-09-19T10:47:12;15.98;;;2.50;;
26718;SDS011;14326;50.794;6.060;2023-09-19T10:49:44;16.08;;;2.92;;
26718;SDS011;14326;50.794;6.060;2023-09-19T10:52:12;14.95;;;2.20;;
26718;SDS011;14326;50.794;6.060;2023-09-19T10:54:44;17.17;;;2.60;;
26718;SDS011;14326;50.794;6.060;2023-09-19T10:57:18;12.23;;;2.30;;
26718;SDS011;14326;50.794;6.060;2023-09-19T11:00:00;16.02;;;2.20;;
26718;SDS011;14326;50.794;6.060;2023-09-19T11:02:36;14.40;;;2.38;;
26718;SDS011;14326;50.794;6.060;2023-09-19T11:05:12;14.07;;;2.80;;
26718;SDS011;14326;50.794;6.060;2023-09-19T11:13:23;13.18;;;2.53;;
26718;SDS011;14326;50.794;6.060;2023-09-19T11:18:51;16.83;;;2.45;;
26718;SDS011;14326;50.794;6.060;2023-09-19T11:24:29;21.48;;;2.80;;
26718;SDS011;14326;50.794;6.060;2023-09-19T11:27:11;16.60;;;2.80;;
26718;SDS011;14326;50.794;6.060;2023-09-19T11:29:42;16.90;;;2.65;;
26718;SDS011;14326;50.794;6.060;2023-09-19T11:32:08;16.63;;;3.17;;
26718;SDS011;14326;50.794;6.060;2023-09-19T11:34:42;18.42;;;2.67;;
26718;SDS011;14326;50.794;6.060;2023-09-19T11:40:37;12.82;;;2.45;;
26718;SDS011;14326;50.794;6.060;2023-09-19T11:46:05;11.82;;;2.38;;
26718;SDS011;14326;50.794;6.060;2023-09-19T11:48:32;14.70;;;2.55;;
26718;SDS011;14326;50.794;6.060;2023-09-19T11:51:09;9.25;;;2.20;;
26718;SDS011;14326;50.794;6.060;2023-09-19T11:53:44;14.95;;;2.90;;
26718;SDS011;14326;50.794;6.060;2023-09-19T11:56:14;10.45;;;2.13;;
26718;SDS011;14326;50.794;6.060;2023-09-19T11:58:43;11.07;;;2.13;;
26718;SDS011;14326;50.794;6.060;2023-09-19T12:01:11;10.73;;;2.00;;
26718;SDS011;14326;50.794;6.060;2023-09-19T12:03:45;13.55;;;2.38;;
26718;SDS011;14326;50.794;6.060;2023-09-19T12:06:13;18.83;;;2.70;;
26718;SDS011;14326;50.794;6.060;2023-09-19T12:08:41;10.43;;;1.85;;
26718;SDS011;14326;50.794;6.060;2023-09-19T12:11:11;12.82;;;2.28;;
26718;SDS011;14326;50.794;6.060;2023-09-19T12:13:42;9.85;;;1.80;;
26718;SDS011;14326;50.794;6.060;2023-09-19T12:16:14;13.43;;;1.98;;
26718;SDS011;14326;50.794;6.060;2023-09-19T12:18:42;8.43;;;1.92;;
26718;SDS011;14326;50.794;6.060;2023-09-19T12:21:24;11.40;;;1.92;;
26718;SDS011;14326;50.794;6.060;2023-09-19T12:24:06;13.50;;;2.00;;
26718;SDS011;14326;50.794;6.060;2023-09-19T12:26:39;13.18;;;2.47;;
26718;SDS011;14326;50.794;6.060;2023-09-19T12:29:11;12.35;;;2.40;;
26718;SDS011;14326;50.794;6.060;2023-09-19T12:31:47;12.68;;;1.95;;
26718;SDS011;14326;50.794;6.060;2023-09-19T12:34:16;14.93;;;2.10;;
26718;SDS011;14326;50.794;6.060;2023-09-19T12:36:45;10.98;;;1.77;;
26718;SDS011;14326;50.794;6.060;2023-09-19T12:39:21;11.60;;;1.90;;
26718;SDS011;14326;50.794;6.060;2023-09-19T12:41:49;10.90;;;1.50;;
26718;SDS011;14326;50.794;6.060;2023-09-19T12:44:19;11.82;;;2.47;;
26718;SDS011;14326;50.794;6.060;2023-09-19T12:46:49;11.23;;;2.03;;
26718;SDS011;14326;50.794;6.060;2023-09-19T12:49:16;7.80;;;1.77;;
26718;SDS011;14326;50.794;6.060;2023-09-19T12:51:44;14.63;;;1.80;;
26718;SDS011;14326;50.794;6.060;2023-09-19T12:54:12;10.93;;;1.92;;
26718;SDS011;14326;50.794;6.060;2023-09-19T12:56:40;11.25;;;1.77;;
26718;SDS011;14326;50.794;6.060;2023-09-19T12:59:10;6.75;;;1.33;;
26718;SDS011;14326;50.794;6.060;2023-09-19T13:01:40;6.78;;;1.40;;
26718;SDS011;14326;50.794;6.060;2023-09-19T13:04:12;9.75;;;1.73;;
26718;SDS011;14326;50.794;6.060;2023-09-19T13:06:43;8.30;;;1.45;;
26718;SDS011;14326;50.794;6.060;2023-09-19T13:09:10;10.15;;;1.60;;
26718;SDS011;14326;50.794;6.060;2023-09-19T13:11:39;11.32;;;1.60;;
26718;SDS011;14326;50.794;6.060;2023-09-19T13:14:18;6.30;;;1.30;;
26718;SDS011;14326;50.794;6.060;2023-09-19T13:16:54;15.60;;;1.70;;
26718;SDS011;14326;50.794;6.060;2023-09-19T13:19:34;15.98;;;1.83;;
26718;SDS011;14326;50.794;6.060;2023-09-19T13:22:02;8.38;;;1.33;;
26718;SDS011;14326;50.794;6.060;2023-09-19T13:24:29;7.60;;;1.40;;
26718;SDS011;14326;50.794;6.060;2023-09-19T13:26:58;9.60;;;1.77;;
26718;SDS011;14326;50.794;6.060;2023-09-19T13:29:25;7.57;;;1.13;;
26718;SDS011;14326;50.794;6.060;2023-09-19T13:31:52;12.65;;;1.65;;
26718;SDS011;14326;50.794;6.060;2023-09-19T13:34:20;7.53;;;1.38;;
26718;SDS011;14326;50.794;6.060;2023-09-19T13:36:47;7.35;;;1.27;;
26718;SDS011;14326;50.794;6.060;2023-09-19T13:39:14;7.93;;;1.42;;
26718;SDS011;14326;50.794;6.060;2023-09-19T13:41:41;9.75;;;1.45;;
26718;SDS011;14326;50.794;6.060;2023-09-19T13:44:08;8.23;;;1.63;;
26718;SDS011;14326;50.794;6.060;2023-09-19T13:46:35;7.25;;;1.33;;
26718;SDS011;14326;50.794;6.060;2023-09-19T13:49:03;5.72;;;1.30;;
26718;SDS011;14326;50.794;6.060;2023-09-19T13:51:30;13.25;;;1.67;;
26718;SDS011;14326;50.794;6.060;2023-09-19T13:53:57;7.20;;;1.00;;
26718;SDS011;14326;50.794;6.060;2023-09-19T13:56:24;6.90;;;1.30;;
26718;SDS011;14326;50.794;6.060;2023-09-19T13:58:52;5.93;;;0.93;;
26718;SDS011;14326;50.794;6.060;2023-09-19T14:01:19;7.72;;;1.45;;
26718;SDS011;14326;50.794;6.060;2023-09-19T14:03:46;8.80;;;1.15;;
26718;SDS011;14326;50.794;6.060;2023-09-19T14:06:15;10.05;;;1.40;;
26718;SDS011;14326;50.794;6.060;2023-09-19T14:08:43;5.25;;;1.10;;
26718;SDS011;14326;50.794;6.060;2023-09-19T14:11:12;5.85;;;1.20;;
26718;SDS011;14326;50.794;6.060;2023-09-19T14:13:39;8.18;;;1.35;;
26718;SDS011;14326;50.794;6.060;2023-09-19T14:16:06;6.28;;;1.10;;
26718;SDS011;14326;50.794;6.060;2023-09-19T14:18:34;5.95;;;1.33;;
26718;SDS011;14326;50.794;6.060;2023-09-19T14:21:02;8.82;;;1.50;;
26718;SDS011;14326;50.794;6.060;2023-09-19T14:23:33;6.45;;;1.30;;
26718;SDS011;14326;50.794;6.060;2023-09-19T14:26:01;13.60;;;1.70;;
26718;SDS011;14326;50.794;6.060;2023-09-19T14:28:27;9.50;;;1.33;;
26718;SDS011;14326;50.794;6.060;2023-09-19T14:30:55;9.10;;;1.05;;
26718;SDS011;14326;50.794;6.060;2023-09-19T14:33:21;10.75;;;1.48;;
26718;SDS011;14326;50.794;6.060;2023-09-19T14:35:48;7.70;;;1.35;;
26718;SDS011;14326;50.794;6.060;2023-09-19T14:38:15;5.30;;;1.33;;
26718;SDS011;14326;50.794;6.060;2023-09-19T14:40:43;8.57;;;1.23;;
26718;SDS011;14326;50.794;6.060;2023-09-19T14:43:10;12.20;;;1.38;;
26718;SDS011;14326;50.794;6.060;2023-09-19T14:45:37;6.45;;;1.08;;
26718;SDS011;14326;50.794;6.060;2023-09-19T14:48:04;7.60;;;1.15;;
26718;SDS011;14326;50.794;6.060;2023-09-19T14:50:32;7.20;;;1.17;;
26718;SDS011;14326;50.794;6.060;2023-09-19T14:52:59;5.38;;;1.17;;
26718;SDS011;14326;50.794;6.060;2023-09-19T14:55:26;10.40;;;1.50;;
26718;SDS011;14326;50.794;6.060;2023-09-19T14:57:55;9.20;;;1.70;;
26718;SDS011;14326;50.794;6.060;2023-09-19T15:00:24;7.50;;;1.45;;
26718;SDS011;14326;50.794;6.060;2023-09-19T15:02:52;9.80;;;1.33;;
26718;SDS011;14326;50.794;6.060;2023-09-19T15:05:21;9.57;;;1.20;;
26718;SDS011;14326;50.794;6.060;2023-09-19T15:07:47;9.80;;;1.35;;
26718;SDS011;14326;50.794;6.060;2023-09-19T15:10:14;7.13;;;1.77;;
26718;SDS011;14326;50.794;6.060;2023-09-19T15:12:43;9.35;;;1.48;;
26718;SDS011;14326;50.794;6.060;2023-09-19T15:15:11;10.10;;;1.42;;
26718;SDS011;14326;50.794;6.060;2023-09-19T15:17:38;6.50;;;1.45;;
26718;SDS011;14326;50.794;6.060;2023-09-19T15:20:05;9.48;;;1.60;;
26718;SDS011;14326;50.794;6.060;2023-09-19T15:22:33;11.43;;;1.67;;